createdAt,value
2022-10-01T00:00:22.117Z,10.80
2022-10-01T00:01:22.199Z,11.30
2022-10-01T00:02:22.157Z,11.10
2022-10-01T00:03:22.164Z,10.90
2022-10-01T00:04:22.225Z,11.20
2022-10-01T00:05:22.217Z,11.40
2022-10-01T00:06:22.248Z,11.80
2022-10-01T00:07:22.264Z,11.30
2022-10-01T00:08:22.279Z,9.50
2022-10-01T00:09:28.170Z,11.80
2022-10-01T00:10:28.317Z,11.00
2022-10-01T00:11:28.368Z,11.80
2022-10-01T00:12:28.424Z,12.10
2022-10-01T00:13:28.365Z,12.10
2022-10-01T00:14:28.391Z,11.70
2022-10-01T00:15:28.387Z,12.10
2022-10-01T00:16:28.489Z,11.60
2022-10-01T00:17:28.412Z,12.10
2022-10-01T00:18:28.497Z,11.20
2022-10-01T00:19:28.464Z,12.40
2022-10-01T00:20:28.493Z,12.00
2022-10-01T00:21:28.549Z,12.40
2022-10-01T00:22:28.521Z,12.90
2022-10-01T00:23:28.564Z,12.20
2022-10-01T00:24:28.556Z,11.90
2022-10-01T00:25:28.590Z,12.60
2022-10-01T00:26:28.590Z,12.20
2022-10-01T00:27:28.578Z,11.30
2022-10-01T00:28:28.708Z,11.70
2022-10-01T00:29:28.597Z,13.30
2022-10-01T00:30:28.632Z,12.30
2022-10-01T00:31:28.734Z,13.10
2022-10-01T00:32:28.659Z,12.00
2022-10-01T00:33:28.683Z,12.60
2022-10-01T00:34:28.692Z,11.80
2022-10-01T00:35:28.721Z,12.20
2022-10-01T00:36:28.728Z,12.00
2022-10-01T00:37:28.710Z,11.50
2022-10-01T00:38:28.750Z,12.60
2022-10-01T00:39:28.766Z,13.90
2022-10-01T00:40:28.821Z,12.80
2022-10-01T00:41:28.817Z,12.20
2022-10-01T00:42:28.808Z,12.80
2022-10-01T00:43:28.784Z,11.10
2022-10-01T00:44:28.863Z,12.20
2022-10-01T00:48:29.029Z,12.60
2022-10-01T00:49:28.931Z,11.90
2022-10-01T00:50:28.957Z,11.30
2022-10-01T00:51:29.055Z,11.40
2022-10-01T00:52:28.979Z,11.20
2022-10-01T00:53:29.008Z,10.90
2022-10-01T00:54:29.056Z,12.30
2022-10-01T00:55:29.065Z,11.20
2022-10-01T00:56:29.043Z,10.70
2022-10-01T00:57:29.058Z,11.70
2022-10-01T00:58:34.990Z,10.70
2022-10-01T00:59:35.100Z,11.20
2022-10-01T01:00:35.133Z,12.30
2022-10-01T01:01:40.186Z,11.70
2022-10-01T01:02:40.190Z,12.30
2022-10-01T01:03:40.128Z,11.10
2022-10-01T01:04:40.166Z,11.50
2022-10-01T01:05:40.206Z,12.60
2022-10-01T01:06:40.223Z,11.90
2022-10-01T01:07:40.263Z,13.10
2022-10-01T01:08:40.244Z,12.30
2022-10-01T01:09:40.276Z,12.70
2022-10-01T01:10:40.307Z,12.70
2022-10-01T01:11:40.312Z,12.40
2022-10-01T01:12:40.313Z,11.70
2022-10-01T01:13:40.298Z,12.10
2022-10-01T01:14:40.374Z,12.00
2022-10-01T01:15:40.431Z,11.20
2022-10-01T01:16:40.348Z,11.60
2022-10-01T01:17:40.366Z,13.10
2022-10-01T01:18:40.410Z,12.10
2022-10-01T01:19:40.394Z,11.60
2022-10-01T01:20:40.438Z,10.50
2022-10-01T01:21:40.435Z,11.80
2022-10-01T01:22:40.452Z,11.40
2022-10-01T01:23:40.443Z,12.90
2022-10-01T01:24:40.475Z,10.90
2022-10-01T01:25:40.462Z,10.60
2022-10-01T01:26:40.477Z,10.80
2022-10-01T01:27:40.524Z,10.90
2022-10-01T01:28:40.640Z,10.70
2022-10-01T01:29:45.437Z,10.30
2022-10-01T01:30:45.635Z,11.50
2022-10-01T01:31:45.610Z,11.30
2022-10-01T01:32:45.633Z,11.10
2022-10-01T01:33:45.593Z,11.30
2022-10-01T01:34:45.638Z,10.30
2022-10-01T01:35:45.656Z,10.90
2022-10-01T01:36:45.658Z,10.90
2022-10-01T01:37:45.654Z,10.10
2022-10-01T01:38:45.686Z,10.90
2022-10-01T01:39:45.676Z,10.10
2022-10-01T01:40:45.754Z,10.20
2022-10-01T01:41:45.714Z,9.90
2022-10-01T01:42:45.731Z,9.60
2022-10-01T01:43:45.729Z,10.30
2022-10-01T01:44:45.756Z,9.80
2022-10-01T01:45:45.808Z,10.30
2022-10-01T01:46:45.784Z,9.80
2022-10-01T01:47:45.791Z,10.00
2022-10-01T01:48:45.890Z,9.00
2022-10-01T01:49:45.836Z,10.80
2022-10-01T01:50:45.869Z,9.20
2022-10-01T01:51:45.881Z,9.30
2022-10-01T01:52:51.496Z,10.00
2022-10-01T01:53:55.839Z,10.00
2022-10-01T01:54:55.933Z,10.50
2022-10-01T01:55:55.932Z,9.20
2022-10-01T01:56:55.979Z,9.30
2022-10-01T01:57:55.979Z,9.30
2022-10-01T01:58:56.056Z,8.60
2022-10-01T01:59:56.025Z,9.40
2022-10-01T02:00:56.057Z,9.60
2022-10-01T02:01:56.235Z,9.10
2022-10-01T02:02:56.161Z,8.80
2022-10-01T02:03:56.117Z,9.30
2022-10-01T02:04:56.118Z,8.10
2022-10-01T02:05:56.114Z,8.20
2022-10-01T02:06:56.150Z,8.50
2022-10-01T02:07:56.145Z,7.60
2022-10-01T02:08:56.201Z,9.00
2022-10-01T02:09:56.176Z,9.00
2022-10-01T02:10:56.240Z,8.60
2022-10-01T02:11:56.244Z,8.40
2022-10-01T02:12:56.266Z,7.40
2022-10-01T02:13:56.256Z,7.10
2022-10-01T02:15:01.240Z,7.10
2022-10-01T02:16:01.527Z,7.40
2022-10-01T02:17:01.350Z,7.50
2022-10-01T02:18:01.341Z,7.50
2022-10-01T02:19:01.344Z,8.20
2022-10-01T02:20:01.460Z,6.90
2022-10-01T02:21:01.388Z,6.60
2022-10-01T02:22:01.439Z,7.30
2022-10-01T02:23:01.479Z,7.20
2022-10-01T02:24:06.359Z,7.80
2022-10-01T02:25:06.513Z,7.50
2022-10-01T02:26:06.479Z,7.50
2022-10-01T02:27:06.525Z,7.30
2022-10-01T02:28:06.589Z,7.20
2022-10-01T02:29:06.563Z,7.00
2022-10-01T02:30:06.610Z,6.40
2022-10-01T02:31:06.668Z,6.00
2022-10-01T02:32:06.634Z,6.50
2022-10-01T02:33:06.664Z,6.50
2022-10-01T02:34:08.595Z,5.60
2022-10-01T02:35:06.739Z,6.70
2022-10-01T02:36:06.715Z,6.80
2022-10-01T02:37:06.749Z,6.20
2022-10-01T02:38:06.762Z,5.60
2022-10-01T02:39:06.797Z,6.10
2022-10-01T02:40:06.830Z,5.20
2022-10-01T02:41:06.819Z,5.80
2022-10-01T02:42:06.876Z,5.30
2022-10-01T02:43:06.874Z,5.60
2022-10-01T02:44:06.916Z,5.20
2022-10-01T02:45:06.953Z,5.30
2022-10-01T02:46:06.983Z,4.90
2022-10-01T02:47:06.990Z,5.00
2022-10-01T02:48:07.002Z,4.50
2022-10-01T02:49:07.047Z,4.70
2022-10-01T02:50:07.061Z,5.00
2022-10-01T02:51:07.081Z,4.20
2022-10-01T02:52:07.113Z,4.70
2022-10-01T02:53:07.109Z,5.10
2022-10-01T02:54:07.091Z,4.80
2022-10-01T02:55:07.182Z,5.50
2022-10-01T02:56:07.104Z,4.70
2022-10-01T02:57:07.149Z,5.20
2022-10-01T02:58:07.143Z,4.60
2022-10-01T02:59:07.184Z,5.10
2022-10-01T03:00:07.204Z,5.10
2022-10-01T03:01:07.353Z,5.60
2022-10-01T03:02:07.355Z,5.40
2022-10-01T03:03:07.241Z,4.70
2022-10-01T03:04:07.222Z,4.80
2022-10-01T03:05:07.281Z,4.40
2022-10-01T03:06:07.254Z,4.70
2022-10-01T03:07:07.282Z,4.70
2022-10-01T03:08:07.276Z,5.40
2022-10-01T03:09:07.330Z,4.80
2022-10-01T03:10:07.304Z,4.30
2022-10-01T03:11:07.331Z,3.90
2022-10-01T03:12:07.373Z,3.90
2022-10-01T03:13:07.359Z,4.00
2022-10-01T03:14:07.344Z,4.10
2022-10-01T03:15:07.397Z,3.90
2022-10-01T03:16:07.455Z,4.00
2022-10-01T03:17:07.415Z,4.10
2022-10-01T03:18:07.415Z,3.80
2022-10-01T03:19:07.459Z,3.80
2022-10-01T03:20:07.431Z,3.40
2022-10-01T03:21:07.463Z,3.30
2022-10-01T03:22:07.497Z,3.00
2022-10-01T03:23:07.525Z,3.40
2022-10-01T03:24:07.517Z,3.40
2022-10-01T03:25:07.594Z,3.60
2022-10-01T03:26:07.538Z,3.90
2022-10-01T03:27:07.577Z,3.90
2022-10-01T03:28:07.651Z,3.30
2022-10-01T03:29:07.622Z,3.30
2022-10-01T03:30:07.668Z,4.10
2022-10-01T03:31:07.756Z,3.60
2022-10-01T03:32:07.683Z,4.10
2022-10-01T03:33:07.682Z,4.00
2022-10-01T03:34:07.695Z,3.50
2022-10-01T03:35:07.757Z,3.60
2022-10-01T03:36:07.700Z,4.00
2022-10-01T03:37:07.741Z,3.20
2022-10-01T03:38:07.754Z,3.30
2022-10-01T03:39:07.781Z,3.30
2022-10-01T03:40:07.818Z,3.40
2022-10-01T03:41:07.827Z,3.60
2022-10-01T03:42:07.883Z,3.20
2022-10-01T03:43:07.913Z,3.30
2022-10-01T03:44:07.889Z,3.80
2022-10-01T03:45:07.946Z,3.20
2022-10-01T03:46:08.394Z,3.40
2022-10-01T03:47:07.993Z,3.90
2022-10-01T03:48:21.659Z,3.40
2022-10-01T03:49:08.018Z,3.60
2022-10-01T03:50:08.033Z,3.50
2022-10-01T03:51:08.049Z,3.60
2022-10-01T03:52:08.092Z,3.40
2022-10-01T03:53:08.098Z,3.50
2022-10-01T03:54:08.083Z,3.40
2022-10-01T03:55:08.169Z,3.80
2022-10-01T03:56:08.108Z,3.60
2022-10-01T03:57:08.154Z,3.30
2022-10-01T03:58:08.143Z,3.90
2022-10-01T03:59:08.195Z,3.60
2022-10-01T04:00:08.192Z,4.10
2022-10-01T04:01:08.211Z,3.80
2022-10-01T04:02:08.401Z,4.20
2022-10-01T04:03:08.335Z,4.00
2022-10-01T04:04:08.254Z,3.80
2022-10-01T04:05:08.331Z,3.70
2022-10-01T04:06:08.274Z,4.10
2022-10-01T04:07:08.332Z,3.90
2022-10-01T04:08:08.317Z,4.40
2022-10-01T04:09:08.363Z,4.00
2022-10-01T04:10:08.430Z,4.00
2022-10-01T04:11:13.022Z,4.00
2022-10-01T04:12:36.857Z,4.30
2022-10-01T04:13:08.433Z,5.10
2022-10-01T04:16:02.494Z,3.70
2022-10-01T04:17:02.485Z,4.00
2022-10-01T04:18:02.497Z,4.40
2022-10-01T04:19:02.526Z,3.50
2022-10-01T04:20:02.536Z,4.10
2022-10-01T04:21:02.613Z,4.30
2022-10-01T04:22:02.576Z,4.20
2022-10-01T04:23:02.677Z,4.80
2022-10-01T04:24:02.623Z,4.90
2022-10-01T04:25:02.702Z,5.30
2022-10-01T04:26:03.686Z,5.30
2022-10-01T04:27:03.703Z,5.40
2022-10-01T04:28:03.758Z,5.50
2022-10-01T04:29:03.775Z,4.90
2022-10-01T04:30:03.726Z,5.00
2022-10-01T04:31:03.783Z,5.00
2022-10-01T04:32:08.682Z,5.20
2022-10-01T04:33:08.834Z,5.10
2022-10-01T04:34:08.824Z,5.10
2022-10-01T04:35:08.861Z,5.20
2022-10-01T04:36:08.832Z,5.30
2022-10-01T04:37:08.881Z,5.60
2022-10-01T04:38:08.890Z,5.10
2022-10-01T04:39:08.907Z,5.80
2022-10-01T04:40:08.927Z,5.60
2022-10-01T04:41:08.936Z,5.60
2022-10-01T04:42:08.929Z,5.60
2022-10-01T04:43:08.991Z,5.60
2022-10-01T04:44:08.951Z,5.80
2022-10-01T04:45:09.004Z,6.00
2022-10-01T04:46:09.379Z,5.50
2022-10-01T04:47:09.080Z,6.10
2022-10-01T04:48:09.026Z,6.70
2022-10-01T04:49:09.059Z,6.70
2022-10-01T04:50:09.073Z,7.70
2022-10-01T04:51:09.094Z,6.20
2022-10-01T04:52:09.090Z,6.90
2022-10-01T04:53:09.169Z,7.30
2022-10-01T04:54:09.116Z,5.90
2022-10-01T04:55:09.229Z,7.10
2022-10-01T04:56:09.168Z,6.30
2022-10-01T04:57:09.207Z,6.90
2022-10-01T04:58:09.572Z,6.30
2022-10-01T04:59:14.109Z,6.50
2022-10-01T05:00:14.275Z,6.30
2022-10-01T05:01:14.290Z,7.10
2022-10-01T05:02:14.354Z,7.60
2022-10-01T05:03:14.335Z,7.70
2022-10-01T05:04:14.327Z,7.40
2022-10-01T05:05:14.344Z,6.90
2022-10-01T05:06:14.357Z,7.50
2022-10-01T05:07:14.367Z,7.50
2022-10-01T05:08:19.315Z,8.80
2022-10-01T05:09:19.449Z,8.10
2022-10-01T05:10:19.451Z,8.50
2022-10-01T05:11:19.438Z,7.80
2022-10-01T05:12:23.781Z,7.30
2022-10-01T05:13:19.505Z,8.70
2022-10-01T05:14:19.486Z,8.20
2022-10-01T05:15:19.555Z,8.50
2022-10-01T05:16:24.462Z,8.10
2022-10-01T05:17:24.543Z,8.60
2022-10-01T05:18:24.536Z,8.80
2022-10-01T05:19:27.970Z,9.20
2022-10-01T05:20:24.613Z,9.70
2022-10-01T05:21:24.616Z,9.70
2022-10-01T05:22:24.594Z,9.10
2022-10-01T05:23:24.662Z,9.70
2022-10-01T05:24:24.629Z,9.60
2022-10-01T05:25:24.683Z,10.90
2022-10-01T05:26:24.675Z,10.50
2022-10-01T05:27:24.722Z,10.40
2022-10-01T05:28:24.830Z,10.50
2022-10-01T05:30:28.718Z,9.90
2022-10-01T05:31:28.907Z,12.20
2022-10-01T05:32:28.831Z,12.00
2022-10-01T05:33:28.904Z,11.20
2022-10-01T05:34:28.868Z,10.50
2022-10-01T05:35:28.961Z,11.30
2022-10-01T05:36:28.904Z,11.80
2022-10-01T05:37:28.943Z,11.50
2022-10-01T05:38:28.938Z,11.50
2022-10-01T05:39:28.971Z,12.20
2022-10-01T05:40:29.035Z,13.00
2022-10-01T05:41:29.021Z,13.20
2022-10-01T05:42:29.019Z,12.80
2022-10-01T05:43:29.093Z,15.60
2022-10-01T05:44:29.081Z,14.30
2022-10-01T05:45:29.207Z,13.30
2022-10-01T05:46:29.099Z,15.10
2022-10-01T05:47:29.117Z,15.90
2022-10-01T05:48:29.121Z,15.20
2022-10-01T05:49:29.155Z,14.70
2022-10-01T05:50:29.185Z,14.80
2022-10-01T05:51:29.193Z,14.00
2022-10-01T05:52:29.197Z,17.80
2022-10-01T05:53:29.284Z,16.00
2022-10-01T05:54:29.229Z,18.50
2022-10-01T05:55:29.251Z,19.20
2022-10-01T05:56:29.251Z,16.40
2022-10-01T05:57:29.318Z,17.20
2022-10-01T05:58:29.269Z,16.40
2022-10-01T05:59:31.865Z,16.30
2022-10-01T06:00:29.540Z,16.60
2022-10-01T06:01:29.372Z,16.80
2022-10-01T06:02:29.447Z,19.50
2022-10-01T06:03:29.409Z,15.00
2022-10-01T06:04:29.377Z,18.10
2022-10-01T06:05:29.424Z,18.50
2022-10-01T06:06:29.419Z,18.30
2022-10-01T06:07:29.475Z,16.00
2022-10-01T06:08:29.459Z,17.80
2022-10-01T06:09:35.390Z,17.50
2022-10-01T06:10:35.533Z,17.30
2022-10-01T06:11:35.965Z,16.40
2022-10-01T06:12:35.599Z,18.80
2022-10-01T06:13:35.592Z,16.60
2022-10-01T06:14:35.645Z,17.20
2022-10-01T06:15:35.606Z,18.60
2022-10-01T06:16:35.694Z,16.90
2022-10-01T06:17:35.708Z,17.70
2022-10-01T06:18:40.624Z,17.40
2022-10-01T06:19:40.714Z,17.70
2022-10-01T06:20:40.729Z,19.60
2022-10-01T06:21:40.776Z,18.60
2022-10-01T06:22:40.803Z,18.00
2022-10-01T06:23:40.853Z,20.80
2022-10-01T06:24:40.808Z,20.30
2022-10-01T06:25:40.861Z,20.70
2022-10-01T06:26:40.842Z,18.90
2022-10-01T06:27:40.902Z,20.80
2022-10-01T06:28:40.941Z,21.10
2022-10-01T06:29:40.943Z,21.10
2022-10-01T06:30:40.939Z,21.60
2022-10-01T06:31:41.021Z,21.40
2022-10-01T06:32:41.213Z,20.40
2022-10-01T06:33:45.993Z,19.90
2022-10-01T06:34:46.077Z,19.20
2022-10-01T06:35:46.065Z,20.00
2022-10-01T06:36:46.106Z,20.40
2022-10-01T06:37:46.105Z,21.30
2022-10-01T06:38:46.178Z,19.90
2022-10-01T06:39:46.180Z,20.90
2022-10-01T06:40:46.224Z,19.80
2022-10-01T06:41:46.227Z,20.80
2022-10-01T06:42:56.019Z,23.00
2022-10-01T06:43:51.409Z,20.70
2022-10-01T06:44:51.299Z,21.00
2022-10-01T06:45:51.399Z,22.10
2022-10-01T06:46:51.353Z,21.30
2022-10-01T06:47:51.398Z,21.60
2022-10-01T06:48:51.424Z,22.10
2022-10-01T06:49:51.437Z,21.90
2022-10-01T06:50:51.454Z,20.40
2022-10-01T06:51:51.880Z,19.40
2022-10-01T06:52:51.485Z,20.70
2022-10-01T06:53:51.557Z,21.10
2022-10-01T06:54:51.535Z,21.50
2022-10-01T06:55:51.602Z,19.90
2022-10-01T06:56:51.589Z,20.80
2022-10-01T06:57:51.652Z,20.80
2022-10-01T06:58:51.642Z,21.80
2022-10-01T06:59:51.676Z,18.30
2022-10-01T07:00:51.739Z,18.20
2022-10-01T07:01:56.040Z,18.20
2022-10-01T07:02:51.863Z,19.50
2022-10-01T07:03:51.802Z,22.50
2022-10-01T07:04:51.789Z,22.10
2022-10-01T07:06:57.781Z,19.70
2022-10-01T07:07:57.889Z,20.30
2022-10-01T07:08:57.903Z,20.60
2022-10-01T07:09:57.953Z,20.80
2022-10-01T07:10:58.000Z,19.90
2022-10-01T07:11:58.048Z,19.90
2022-10-01T07:12:58.067Z,21.30
2022-10-01T07:13:58.084Z,21.00
2022-10-01T07:14:58.104Z,20.10
2022-10-01T07:15:58.149Z,21.00
2022-10-01T07:16:58.197Z,18.70
2022-10-01T07:17:58.205Z,19.90
2022-10-01T07:18:58.217Z,19.80
2022-10-01T07:19:58.272Z,19.90
2022-10-01T07:20:58.303Z,20.30
2022-10-01T07:21:58.357Z,20.90
2022-10-01T07:22:58.348Z,18.80
2022-10-01T07:23:58.401Z,18.60
2022-10-01T07:24:58.384Z,18.60
2022-10-01T07:25:58.461Z,19.20
2022-10-01T07:26:58.531Z,21.60
2022-10-01T07:27:58.566Z,18.90
2022-10-01T07:28:58.491Z,19.10
2022-10-01T07:29:58.560Z,18.10
2022-10-01T07:30:58.592Z,20.50
2022-10-01T07:32:03.588Z,19.40
2022-10-01T07:33:03.643Z,19.20
2022-10-01T07:34:03.665Z,18.90
2022-10-01T07:35:03.700Z,17.70
2022-10-01T07:36:03.695Z,18.50
2022-10-01T07:37:09.677Z,17.60
2022-10-01T07:38:09.792Z,18.70
2022-10-01T07:39:09.811Z,17.60
2022-10-01T07:40:09.840Z,17.80
2022-10-01T07:41:09.901Z,18.70
2022-10-01T07:42:09.920Z,17.10
2022-10-01T07:43:09.949Z,19.10
2022-10-01T07:44:09.981Z,18.30
2022-10-01T07:45:09.970Z,18.90
2022-10-01T07:46:10.097Z,17.90
2022-10-01T07:47:10.048Z,15.90
2022-10-01T07:48:10.073Z,18.00
2022-10-01T07:49:10.078Z,17.00
2022-10-01T07:50:10.147Z,16.30
2022-10-01T07:51:10.163Z,16.40
2022-10-01T07:52:13.241Z,16.00
2022-10-01T07:53:10.213Z,15.40
2022-10-01T07:54:10.244Z,17.10
2022-10-01T07:55:10.248Z,16.90
2022-10-01T07:56:10.308Z,17.20
2022-10-01T07:57:10.344Z,16.00
2022-10-01T07:58:10.390Z,15.90
2022-10-01T07:59:10.383Z,14.70
2022-10-01T08:00:10.432Z,14.50
2022-10-01T08:01:10.558Z,14.10
2022-10-01T08:02:15.511Z,13.80
2022-10-01T08:03:15.569Z,14.80
2022-10-01T08:04:15.562Z,14.20
2022-10-01T08:05:15.629Z,15.40
2022-10-01T08:06:15.624Z,16.50
2022-10-01T08:07:20.581Z,16.60
2022-10-01T08:08:20.758Z,15.30
2022-10-01T08:09:20.734Z,16.00
2022-10-01T08:10:20.803Z,16.10
2022-10-01T08:11:20.876Z,14.30
2022-10-01T08:12:20.869Z,16.10
2022-10-01T08:13:20.910Z,13.80
2022-10-01T08:14:20.992Z,14.50
2022-10-01T08:15:20.965Z,14.10
2022-10-01T08:16:21.080Z,13.30
2022-10-01T08:17:21.016Z,14.50
2022-10-01T08:18:21.108Z,13.30
2022-10-01T08:19:21.111Z,13.20
2022-10-01T08:20:21.158Z,12.20
2022-10-01T08:21:21.222Z,12.70
2022-10-01T08:22:21.220Z,12.60
2022-10-01T08:23:21.260Z,13.00
2022-10-01T08:24:21.288Z,13.80
2022-10-01T08:25:21.337Z,12.90
2022-10-01T08:26:21.367Z,13.30
2022-10-01T08:27:21.400Z,13.40
2022-10-01T08:28:21.537Z,14.00
2022-10-01T08:29:21.487Z,13.70
2022-10-01T08:30:21.571Z,13.10
2022-10-01T08:31:21.631Z,13.20
2022-10-01T08:32:21.595Z,14.10
2022-10-01T08:33:21.630Z,13.20
2022-10-01T08:34:21.650Z,15.00
2022-10-01T08:35:21.682Z,14.60
2022-10-01T08:36:21.722Z,15.10
2022-10-01T08:37:21.719Z,16.90
2022-10-01T08:38:21.817Z,15.80
2022-10-01T08:41:18.273Z,15.80
2022-10-01T08:42:15.958Z,16.20
2022-10-01T08:43:15.940Z,16.00
2022-10-01T08:44:15.975Z,15.70
2022-10-01T08:45:15.996Z,14.50
2022-10-01T08:46:16.147Z,15.20
2022-10-01T08:47:16.070Z,15.20
2022-10-01T08:48:16.154Z,15.70
2022-10-01T08:49:16.126Z,16.20
2022-10-01T08:50:16.194Z,16.00
2022-10-01T08:51:16.189Z,14.60
2022-10-01T08:52:16.269Z,15.00
2022-10-01T08:53:16.282Z,14.70
2022-10-01T08:54:16.314Z,13.40
2022-10-01T08:55:16.327Z,12.10
2022-10-01T08:56:16.804Z,12.60
2022-10-01T08:57:16.424Z,12.90
2022-10-01T08:58:16.489Z,12.40
2022-10-01T08:59:16.447Z,12.10
2022-10-01T09:00:16.514Z,12.20
2022-10-01T09:01:16.584Z,12.10
2022-10-01T09:02:16.608Z,11.90
2022-10-01T09:03:16.625Z,10.30
2022-10-01T09:04:16.755Z,11.00
2022-10-01T09:05:16.665Z,10.80
2022-10-01T09:06:16.726Z,10.90
2022-10-01T09:07:16.736Z,11.80
2022-10-01T09:08:16.838Z,10.90
2022-10-01T09:09:16.827Z,10.60
2022-10-01T09:10:16.876Z,11.20
2022-10-01T09:11:16.905Z,10.60
2022-10-01T09:12:17.016Z,10.10
2022-10-01T09:13:17.026Z,10.60
2022-10-01T09:14:17.032Z,10.70
2022-10-01T09:15:17.054Z,10.40
2022-10-01T09:16:17.160Z,10.90
2022-10-01T09:17:17.135Z,11.00
2022-10-01T09:18:17.629Z,10.60
2022-10-01T09:19:17.223Z,11.60
2022-10-01T09:20:17.292Z,12.00
2022-10-01T09:21:17.282Z,12.50
2022-10-01T09:22:17.401Z,13.00
2022-10-01T09:23:17.362Z,13.00
2022-10-01T09:24:17.436Z,14.20
2022-10-01T09:25:17.463Z,13.10
2022-10-01T09:26:18.319Z,12.30
2022-10-01T09:27:17.560Z,12.60
2022-10-01T09:28:17.564Z,10.60
2022-10-01T09:29:17.608Z,11.10
2022-10-01T09:30:17.745Z,10.90
2022-10-01T09:31:17.710Z,10.20
2022-10-01T09:32:17.774Z,9.90
2022-10-01T09:33:17.771Z,9.50
2022-10-01T09:34:17.833Z,9.10
2022-10-01T09:35:17.888Z,7.90
2022-10-01T09:36:17.928Z,7.70
2022-10-01T09:37:17.942Z,7.50
2022-10-01T09:38:18.018Z,7.00
2022-10-01T09:39:18.036Z,7.20
2022-10-01T09:40:18.145Z,7.60
2022-10-01T09:41:18.143Z,7.00
2022-10-01T09:42:18.253Z,6.90
2022-10-01T09:43:18.268Z,7.60
2022-10-01T09:44:19.043Z,7.40
2022-10-01T09:45:18.348Z,6.90
2022-10-01T09:46:18.436Z,6.90
2022-10-01T09:47:18.439Z,6.60
2022-10-01T09:48:18.534Z,7.60
2022-10-01T09:49:18.527Z,7.20
2022-10-01T09:50:18.618Z,5.90
2022-10-01T09:51:18.633Z,7.00
2022-10-01T09:52:18.702Z,6.60
2022-10-01T09:53:18.692Z,6.70
2022-10-01T09:54:18.761Z,6.60
2022-10-01T09:55:18.795Z,6.60
2022-10-01T09:56:18.838Z,6.20
2022-10-01T09:57:18.837Z,6.40
2022-10-01T09:58:18.909Z,5.90
2022-10-01T09:59:18.905Z,5.90
2022-10-01T10:00:19.023Z,5.70
2022-10-01T10:01:18.994Z,5.80
2022-10-01T10:02:19.152Z,5.40
2022-10-01T10:03:19.134Z,5.60
2022-10-01T10:04:20.147Z,6.20
2022-10-01T10:05:19.201Z,6.00
2022-10-01T10:06:19.210Z,5.70
2022-10-01T10:07:19.245Z,5.80
2022-10-01T10:08:19.340Z,5.10
2022-10-01T10:09:19.334Z,5.50
2022-10-01T10:10:24.607Z,5.50
2022-10-01T10:11:19.420Z,6.00
2022-10-01T10:12:19.481Z,5.40
2022-10-01T10:13:19.512Z,5.60
2022-10-01T10:14:19.571Z,5.30
2022-10-01T10:15:19.628Z,5.10
2022-10-01T10:16:19.763Z,5.20
2022-10-01T10:17:19.666Z,5.30
2022-10-01T10:18:23.788Z,5.40
2022-10-01T10:19:19.753Z,5.30
2022-10-01T10:20:19.793Z,4.20
2022-10-01T10:21:19.799Z,4.40
2022-10-01T10:22:19.886Z,4.60
2022-10-01T10:23:19.936Z,4.20
2022-10-01T10:24:19.971Z,4.20
2022-10-01T10:25:19.997Z,4.20
2022-10-01T10:26:20.077Z,4.70
2022-10-01T10:27:20.087Z,3.80
2022-10-01T10:28:20.252Z,4.00
2022-10-01T10:29:20.207Z,4.20
2022-10-01T10:30:20.286Z,4.10
2022-10-01T10:31:20.473Z,4.20
2022-10-01T10:32:20.334Z,4.30
2022-10-01T10:33:20.471Z,4.80
2022-10-01T10:34:20.423Z,5.00
2022-10-01T10:35:20.453Z,4.60
2022-10-01T10:36:26.409Z,5.00
2022-10-01T10:37:26.547Z,4.80
2022-10-01T10:38:26.586Z,4.50
2022-10-01T10:39:26.621Z,5.10
2022-10-01T10:40:29.483Z,5.20
2022-10-01T10:41:31.752Z,4.20
2022-10-01T10:42:31.783Z,4.50
2022-10-01T10:43:32.206Z,4.90
2022-10-01T10:44:31.854Z,4.00
2022-10-01T10:45:31.906Z,4.60
2022-10-01T10:46:32.116Z,4.40
2022-10-01T10:47:31.939Z,4.40
2022-10-01T10:48:32.017Z,3.30
2022-10-01T10:49:32.003Z,2.80
2022-10-01T10:50:32.139Z,3.30
2022-10-01T10:51:32.444Z,3.40
2022-10-01T10:52:32.170Z,3.70
2022-10-01T10:53:32.170Z,3.10
2022-10-01T10:54:36.133Z,3.50
2022-10-01T10:55:41.222Z,4.20
2022-10-01T10:56:41.344Z,3.50
2022-10-01T10:57:41.341Z,3.60
2022-10-01T10:58:41.438Z,3.90
2022-10-01T10:59:41.432Z,4.20
2022-10-01T11:00:41.489Z,3.60
2022-10-01T11:01:41.574Z,3.60
2022-10-01T11:02:41.579Z,3.60
2022-10-01T11:03:41.583Z,4.10
2022-10-01T11:04:41.628Z,4.30
2022-10-01T11:05:41.618Z,4.20
2022-10-01T11:06:41.657Z,4.90
2022-10-01T11:07:41.681Z,4.00
2022-10-01T11:08:41.767Z,4.30
2022-10-01T11:09:41.750Z,4.10
2022-10-01T11:10:41.835Z,4.10
2022-10-01T11:11:41.805Z,3.90
2022-10-01T11:12:41.850Z,4.00
2022-10-01T11:13:41.868Z,3.90
2022-10-01T11:14:41.934Z,4.40
2022-10-01T11:15:42.431Z,4.30
2022-10-01T11:16:42.003Z,3.70
2022-10-01T11:17:42.028Z,3.70
2022-10-01T11:18:42.099Z,3.90
2022-10-01T11:19:42.077Z,3.80
2022-10-01T11:20:42.143Z,4.90
2022-10-01T11:21:42.165Z,4.00
2022-10-01T11:22:42.212Z,4.30
2022-10-01T11:23:42.225Z,3.80
2022-10-01T11:24:42.280Z,3.70
2022-10-01T11:25:42.308Z,3.90
2022-10-01T11:26:42.341Z,4.30
2022-10-01T11:27:42.353Z,4.10
2022-10-01T11:28:42.424Z,4.10
2022-10-01T11:29:42.408Z,4.60
2022-10-01T11:30:42.503Z,4.00
2022-10-01T11:31:42.487Z,3.80
2022-10-01T11:32:42.535Z,3.00
2022-10-01T11:33:42.527Z,3.80
2022-10-01T11:34:42.577Z,3.80
2022-10-01T11:35:42.630Z,3.80
2022-10-01T11:36:42.644Z,3.40
2022-10-01T11:37:42.689Z,3.80
2022-10-01T11:38:42.794Z,3.90
2022-10-01T11:39:42.739Z,3.70
2022-10-01T11:40:42.800Z,3.40
2022-10-01T11:41:42.828Z,3.10
2022-10-01T11:42:42.894Z,4.10
2022-10-01T11:43:42.896Z,4.00
2022-10-01T11:44:42.946Z,4.40
2022-10-01T11:45:42.976Z,3.30
2022-10-01T11:46:43.095Z,4.10
2022-10-01T11:47:43.095Z,3.30
2022-10-01T11:48:48.059Z,3.10
2022-10-01T11:49:48.176Z,3.10
2022-10-01T11:50:48.179Z,3.90
2022-10-01T11:51:48.234Z,3.80
2022-10-01T11:52:48.296Z,3.90
2022-10-01T11:53:48.335Z,3.40
2022-10-01T11:54:48.349Z,4.00
2022-10-01T11:55:52.289Z,3.70
2022-10-01T11:56:52.459Z,4.30
2022-10-01T11:59:46.507Z,4.10
2022-10-01T12:00:46.629Z,4.10
2022-10-01T12:01:46.711Z,3.10
2022-10-01T12:02:46.669Z,3.30
2022-10-01T12:03:46.725Z,3.70
2022-10-01T12:04:46.761Z,4.00
2022-10-01T12:05:46.804Z,3.30
2022-10-01T12:06:46.823Z,3.60
2022-10-01T12:07:46.846Z,3.70
2022-10-01T12:08:46.940Z,3.60
2022-10-01T12:09:46.939Z,3.60
2022-10-01T12:10:46.958Z,3.30
2022-10-01T12:11:46.971Z,4.00
2022-10-01T12:12:47.032Z,4.20
2022-10-01T12:13:47.063Z,4.20
2022-10-01T12:14:47.102Z,4.10
2022-10-01T12:15:47.252Z,3.60
2022-10-01T12:16:47.179Z,3.40
2022-10-01T12:17:47.198Z,3.50
2022-10-01T12:18:47.283Z,3.30
2022-10-01T12:19:47.306Z,3.70
2022-10-01T12:20:47.332Z,4.30
2022-10-01T12:21:47.402Z,4.00
2022-10-01T12:22:47.457Z,4.00
2022-10-01T12:23:47.514Z,3.20
2022-10-01T12:24:47.528Z,4.00
2022-10-01T12:25:47.573Z,3.40
2022-10-01T12:26:47.616Z,3.30
2022-10-01T12:27:47.678Z,3.30
2022-10-01T12:28:52.068Z,3.20
2022-10-01T12:29:47.762Z,3.50
2022-10-01T12:30:53.657Z,3.30
2022-10-01T12:31:53.828Z,3.40
2022-10-01T12:32:53.860Z,3.30
2022-10-01T12:33:53.956Z,3.60
2022-10-01T12:34:54.347Z,3.60
2022-10-01T12:35:54.004Z,3.10
2022-10-01T12:36:54.037Z,3.80
2022-10-01T12:37:54.088Z,3.50
2022-10-01T12:38:54.115Z,3.60
2022-10-01T12:39:54.206Z,3.60
2022-10-01T12:40:54.182Z,3.80
2022-10-01T12:41:54.222Z,3.40
2022-10-01T12:42:54.636Z,3.60
2022-10-01T12:43:54.351Z,2.90
2022-10-01T12:45:59.322Z,2.80
2022-10-01T12:46:59.438Z,3.40
2022-10-01T12:47:59.458Z,3.60
2022-10-01T12:48:59.559Z,2.60
2022-10-01T12:49:59.564Z,3.10
2022-10-01T12:50:59.597Z,2.90
2022-10-01T12:51:59.618Z,2.90
2022-10-01T12:52:59.671Z,3.60
2022-10-01T12:53:59.708Z,3.70
2022-10-01T12:54:59.746Z,3.30
2022-10-01T12:55:59.785Z,3.20
2022-10-01T12:56:59.817Z,3.10
2022-10-01T12:57:59.825Z,3.20
2022-10-01T12:58:59.895Z,3.40
2022-10-01T12:59:59.917Z,2.70
2022-10-01T13:01:03.923Z,2.60
2022-10-01T13:02:04.088Z,3.30
2022-10-01T13:03:04.012Z,3.10
2022-10-01T13:04:04.092Z,2.80
2022-10-01T13:05:04.112Z,3.80
2022-10-01T13:06:09.083Z,3.30
2022-10-01T13:07:14.093Z,3.10
2022-10-01T13:08:14.234Z,3.90
2022-10-01T13:09:14.280Z,3.30
2022-10-01T13:10:14.347Z,3.80
2022-10-01T13:11:14.312Z,3.30
2022-10-01T13:12:14.392Z,3.50
2022-10-01T13:13:14.387Z,2.90
2022-10-01T13:14:14.465Z,3.70
2022-10-01T13:15:14.478Z,3.50
2022-10-01T13:16:14.573Z,3.90
2022-10-01T13:17:14.550Z,3.90
2022-10-01T13:18:19.637Z,3.20
2022-10-01T13:19:19.672Z,2.70
2022-10-01T13:20:24.598Z,3.30
2022-10-01T13:21:24.721Z,3.50